sensor_id;sensor_type;location;lat;lon;timestamp;pressure;altitude;pressure_sealevel;temperature;humidity
22580;BME280;11456;47.030;15.396;2024-03-02T00:00:12;96818.22;;;9.83;100.00
22580;BME280;11456;47.030;15.396;2024-03-02T00:02:44;96820.06;;;9.74;100.00
22580;BME280;11456;47.030;15.396;2024-03-02T00:05:12;96820.56;;;9.61;100.00
22580;BME280;11456;47.030;15.396;2024-03-02T00:07:41;96826.28;;;9.83;100.00
22580;BME280;11456;47.030;15.396;2024-03-02T00:10:10;96823.75;;;9.73;100.00
22580;BME280;11456;47.030;15.396;2024-03-02T00:12:39;96831.31;;;9.61;100.00
22580;BME280;11456;47.030;15.396;2024-03-02T00:15:25;96820.88;;;9.42;100.00
22580;BME280;11456;47.030;15.396;2024-03-02T00:17:58;96833.28;;;9.27;100.00
22580;BME280;11456;47.030;15.396;2024-03-02T00:20:25;96837.97;;;9.25;100.00
22580;BME280;11456;47.030;15.396;2024-03-02T00:23:03;96844.69;;;9.21;100.00
22580;BME280;11456;47.030;15.396;2024-03-02T00:25:44;96835.97;;;9.35;100.00
22580;BME280;11456;47.030;15.396;2024-03-02T00:28:24;96833.97;;;9.37;100.00
22580;BME280;11456;47.030;15.396;2024-03-02T00:31:05;96845.34;;;9.23;100.00
22580;BME280;11456;47.030;15.396;2024-03-02T00:33:34;96834.00;;;9.70;100.00
22580;BME280;11456;47.030;15.396;2024-03-02T00:36:02;96839.34;;;9.37;100.00
22580;BME280;11456;47.030;15.396;2024-03-02T00:38:33;96843.31;;;9.17;100.00
22580;BME280;11456;47.030;15.396;2024-03-02T00:41:05;96838.00;;;9.33;100.00
22580;BME280;11456;47.030;15.396;2024-03-02T00:46:20;96832.94;;;9.30;100.00
22580;BME280;11456;47.030;15.396;2024-03-02T00:48:57;96834.59;;;9.15;100.00
22580;BME280;11456;47.030;15.396;2024-03-02T00:51:26;96831.91;;;9.23;100.00
22580;BME280;11456;47.030;15.396;2024-03-02T00:53:54;96830.94;;;9.32;100.00
22580;BME280;11456;47.030;15.396;2024-03-02T00:56:24;96840.94;;;9.06;100.00
22580;BME280;11456;47.030;15.396;2024-03-02T00:58:52;96841.91;;;8.97;100.00
22580;BME280;11456;47.030;15.396;2024-03-02T01:01:19;96838.22;;;8.98;100.00
22580;BME280;11456;47.030;15.396;2024-03-02T01:03:46;96828.84;;;9.02;100.00
22580;BME280;11456;47.030;15.396;2024-03-02T01:06:13;96833.50;;;8.92;100.00
22580;BME280;11456;47.030;15.396;2024-03-02T01:08:40;96825.97;;;9.03;100.00
22580;BME280;11456;47.030;15.396;2024-03-02T01:11:07;96835.56;;;9.06;100.00
22580;BME280;11456;47.030;15.396;2024-03-02T01:13:34;96825.88;;;9.29;100.00
22580;BME280;11456;47.030;15.396;2024-03-02T01:16:01;96830.50;;;9.03;100.00
22580;BME280;11456;47.030;15.396;2024-03-02T01:18:28;96831.81;;;8.91;100.00
22580;BME280;11456;47.030;15.396;2024-03-02T01:20:54;96834.47;;;8.82;100.00
22580;BME280;11456;47.030;15.396;2024-03-02T01:23:23;96833.09;;;8.78;100.00
22580;BME280;11456;47.030;15.396;2024-03-02T01:25:51;96838.13;;;8.73;100.00
22580;BME280;11456;47.030;15.396;2024-03-02T01:28:18;96834.13;;;8.85;100.00
22580;BME280;11456;47.030;15.396;2024-03-02T01:30:45;96832.78;;;8.81;100.00
22580;BME280;11456;47.030;15.396;2024-03-02T01:33:12;96832.72;;;9.07;100.00
22580;BME280;11456;47.030;15.396;2024-03-02T01:35:39;96833.28;;;9.27;100.00
22580;BME280;11456;47.030;15.396;2024-03-02T01:38:06;96826.06;;;9.28;100.00
22580;BME280;11456;47.030;15.396;2024-03-02T01:40:37;96829.75;;;9.27;100.00
22580;BME280;11456;47.030;15.396;2024-03-02T01:43:04;96836.22;;;9.00;100.00
22580;BME280;11456;47.030;15.396;2024-03-02T01:45:31;96833.19;;;8.95;100.00
22580;BME280;11456;47.030;15.396;2024-03-02T01:47:59;96827.91;;;9.27;100.00
22580;BME280;11456;47.030;15.396;2024-03-02T01:50:31;96834.72;;;9.05;100.00
22580;BME280;11456;47.030;15.396;2024-03-02T01:52:58;96828.47;;;8.89;100.00
22580;BME280;11456;47.030;15.396;2024-03-02T01:55:25;96826.03;;;8.77;100.00
22580;BME280;11456;47.030;15.396;2024-03-02T01:57:53;96824.75;;;8.81;100.00
22580;BME280;11456;47.030;15.396;2024-03-02T02:00:21;96823.34;;;8.77;100.00
22580;BME280;11456;47.030;15.396;2024-03-02T02:02:48;96825.88;;;8.79;100.00
22580;BME280;11456;47.030;15.396;2024-03-02T02:05:15;96826.13;;;8.94;100.00
22580;BME280;11456;47.030;15.396;2024-03-02T02:07:42;96825.78;;;8.97;100.00
22580;BME280;11456;47.030;15.396;2024-03-02T02:10:12;96821.47;;;9.12;100.00
22580;BME280;11456;47.030;15.396;2024-03-02T02:12:39;96816.03;;;8.88;100.00
22580;BME280;11456;47.030;15.396;2024-03-02T02:17:52;96815.13;;;9.13;100.00
22580;BME280;11456;47.030;15.396;2024-03-02T02:20:19;96798.00;;;9.22;100.00
22580;BME280;11456;47.030;15.396;2024-03-02T02:23:04;96802.47;;;8.89;100.00
22580;BME280;11456;47.030;15.396;2024-03-02T02:25:37;96793.69;;;9.45;100.00
22580;BME280;11456;47.030;15.396;2024-03-02T02:28:04;96796.88;;;9.41;100.00
22580;BME280;11456;47.030;15.396;2024-03-02T02:30:32;96795.66;;;9.35;100.00
22580;BME280;11456;47.030;15.396;2024-03-02T02:32:59;96789.94;;;9.30;100.00
22580;BME280;11456;47.030;15.396;2024-03-02T02:35:26;96796.28;;;9.05;100.00
22580;BME280;11456;47.030;15.396;2024-03-02T02:37:55;96796.28;;;9.05;100.00
22580;BME280;11456;47.030;15.396;2024-03-02T02:40:23;96794.59;;;9.04;100.00
22580;BME280;11456;47.030;15.396;2024-03-02T02:42:50;96788.38;;;9.03;100.00
22580;BME280;11456;47.030;15.396;2024-03-02T02:45:19;96795.22;;;8.81;100.00
22580;BME280;11456;47.030;15.396;2024-03-02T02:47:46;96788.56;;;9.10;100.00
22580;BME280;11456;47.030;15.396;2024-03-02T02:50:13;96798.66;;;9.08;100.00
22580;BME280;11456;47.030;15.396;2024-03-02T02:52:41;96786.53;;;8.96;100.00
22580;BME280;11456;47.030;15.396;2024-03-02T02:55:12;96796.00;;;8.74;100.00
22580;BME280;11456;47.030;15.396;2024-03-02T02:57:41;96791.34;;;8.84;100.00
22580;BME280;11456;47.030;15.396;2024-03-02T03:00:11;96794.25;;;8.99;100.00
22580;BME280;11456;47.030;15.396;2024-03-02T03:02:48;96789.50;;;8.84;100.00
22580;BME280;11456;47.030;15.396;2024-03-02T03:05:18;96795.56;;;8.87;100.00
22580;BME280;11456;47.030;15.396;2024-03-02T03:07:45;96788.69;;;8.92;100.00
22580;BME280;11456;47.030;15.396;2024-03-02T03:10:12;96793.13;;;8.67;100.00
22580;BME280;11456;47.030;15.396;2024-03-02T03:12:40;96795.81;;;8.67;100.00
22580;BME280;11456;47.030;15.396;2024-03-02T03:15:11;96785.44;;;8.72;100.00
22580;BME280;11456;47.030;15.396;2024-03-02T03:17:38;96786.97;;;8.75;100.00
22580;BME280;11456;47.030;15.396;2024-03-02T03:20:05;96790.81;;;8.72;100.00
22580;BME280;11456;47.030;15.396;2024-03-02T03:22:36;96785.28;;;8.74;100.00
22580;BME280;11456;47.030;15.396;2024-03-02T03:25:03;96788.16;;;8.80;100.00
22580;BME280;11456;47.030;15.396;2024-03-02T03:27:30;96789.69;;;8.91;100.00
22580;BME280;11456;47.030;15.396;2024-03-02T03:29:57;96779.47;;;8.95;100.00
22580;BME280;11456;47.030;15.396;2024-03-02T03:32:23;96770.56;;;8.86;100.00
22580;BME280;11456;47.030;15.396;2024-03-02T03:34:51;96776.06;;;8.84;100.00
22580;BME280;11456;47.030;15.396;2024-03-02T03:37:18;96778.16;;;9.07;100.00
22580;BME280;11456;47.030;15.396;2024-03-02T03:39:44;96773.84;;;9.30;100.00
22580;BME280;11456;47.030;15.396;2024-03-02T03:42:11;96768.41;;;8.98;100.00
22580;BME280;11456;47.030;15.396;2024-03-02T03:44:38;96769.75;;;8.94;100.00
22580;BME280;11456;47.030;15.396;2024-03-02T03:47:07;96766.72;;;8.97;100.00
22580;BME280;11456;47.030;15.396;2024-03-02T03:49:33;96777.81;;;9.10;100.00
22580;BME280;11456;47.030;15.396;2024-03-02T03:52:00;96780.00;;;9.06;100.00
22580;BME280;11456;47.030;15.396;2024-03-02T03:54:27;96788.34;;;8.87;100.00
22580;BME280;11456;47.030;15.396;2024-03-02T03:56:53;96784.50;;;8.90;100.00
22580;BME280;11456;47.030;15.396;2024-03-02T03:59:20;96787.16;;;8.81;100.00
22580;BME280;11456;47.030;15.396;2024-03-02T04:01:46;96784.25;;;8.67;100.00
22580;BME280;11456;47.030;15.396;2024-03-02T04:04:13;96781.63;;;8.91;100.00
22580;BME280;11456;47.030;15.396;2024-03-02T04:06:40;96779.22;;;8.72;100.00
22580;BME280;11456;47.030;15.396;2024-03-02T04:09:07;96782.09;;;8.70;100.00
22580;BME280;11456;47.030;15.396;2024-03-02T04:11:33;96791.00;;;8.79;100.00
22580;BME280;11456;47.030;15.396;2024-03-02T04:14:00;96778.19;;;9.15;100.00
22580;BME280;11456;47.030;15.396;2024-03-02T04:16:27;96785.50;;;8.89;100.00
22580;BME280;11456;47.030;15.396;2024-03-02T04:18:55;96791.00;;;8.45;100.00
22580;BME280;11456;47.030;15.396;2024-03-02T04:21:21;96782.97;;;8.45;100.00
22580;BME280;11456;47.030;15.396;2024-03-02T04:23:48;96784.00;;;8.52;100.00
22580;BME280;11456;47.030;15.396;2024-03-02T04:26:15;96782.59;;;8.40;100.00
22580;BME280;11456;47.030;15.396;2024-03-02T04:28:46;96781.31;;;8.44;100.00
22580;BME280;11456;47.030;15.396;2024-03-02T04:31:14;96777.06;;;8.75;100.00
22580;BME280;11456;47.030;15.396;2024-03-02T04:33:41;96789.56;;;9.01;100.00
22580;BME280;11456;47.030;15.396;2024-03-02T04:36:07;96786.47;;;8.79;100.00
22580;BME280;11456;47.030;15.396;2024-03-02T04:38:36;96792.28;;;8.67;100.00
22580;BME280;11456;47.030;15.396;2024-03-02T04:41:07;96804.63;;;8.52;100.00
22580;BME280;11456;47.030;15.396;2024-03-02T04:43:34;96800.50;;;8.65;100.00
22580;BME280;11456;47.030;15.396;2024-03-02T04:46:01;96812.22;;;8.56;100.00
22580;BME280;11456;47.030;15.396;2024-03-02T04:48:28;96810.53;;;8.55;100.00
22580;BME280;11456;47.030;15.396;2024-03-02T04:50:55;96812.28;;;8.72;100.00
22580;BME280;11456;47.030;15.396;2024-03-02T04:53:22;96817.47;;;8.40;100.00
22580;BME280;11456;47.030;15.396;2024-03-02T04:55:49;96810.19;;;8.58;100.00
22580;BME280;11456;47.030;15.396;2024-03-02T04:58:21;96827.03;;;8.68;100.00
22580;BME280;11456;47.030;15.396;2024-03-02T05:00:48;96816.84;;;8.46;100.00
22580;BME280;11456;47.030;15.396;2024-03-02T05:03:14;96815.25;;;8.61;100.00
22580;BME280;11456;47.030;15.396;2024-03-02T05:05:41;96822.59;;;8.59;100.00
22580;BME280;11456;47.030;15.396;2024-03-02T05:08:08;96836.94;;;8.42;100.00
22580;BME280;11456;47.030;15.396;2024-03-02T05:10:35;96832.28;;;8.52;100.00
22580;BME280;11456;47.030;15.396;2024-03-02T05:13:03;96828.63;;;8.53;100.00
22580;BME280;11456;47.030;15.396;2024-03-02T05:15:29;96833.63;;;8.48;100.00
22580;BME280;11456;47.030;15.396;2024-03-02T05:17:56;96839.44;;;8.69;100.00
22580;BME280;11456;47.030;15.396;2024-03-02T05:20:24;96828.34;;;8.64;100.00
22580;BME280;11456;47.030;15.396;2024-03-02T05:22:51;96823.47;;;8.60;100.00
22580;BME280;11456;47.030;15.396;2024-03-02T05:25:17;96835.25;;;8.41;100.00
22580;BME280;11456;47.030;15.396;2024-03-02T05:27:45;96839.56;;;8.34;100.00
22580;BME280;11456;47.030;15.396;2024-03-02T05:30:13;96833.94;;;8.45;100.00
22580;BME280;11456;47.030;15.396;2024-03-02T05:32:40;96834.63;;;8.47;100.00
22580;BME280;11456;47.030;15.396;2024-03-02T05:35:07;96836.25;;;8.40;100.00
22580;BME280;11456;47.030;15.396;2024-03-02T05:37:34;96835.25;;;8.41;100.00
22580;BME280;11456;47.030;15.396;2024-03-02T05:40:01;96835.03;;;8.60;100.00
22580;BME280;11456;47.030;15.396;2024-03-02T05:42:28;96840.19;;;8.54;100.00
22580;BME280;11456;47.030;15.396;2024-03-02T05:44:55;96840.75;;;8.57;100.00
22580;BME280;11456;47.030;15.396;2024-03-02T05:47:21;96840.84;;;8.81;100.00
22580;BME280;11456;47.030;15.396;2024-03-02T05:49:48;96839.44;;;8.69;100.00
22580;BME280;11456;47.030;15.396;2024-03-02T05:52:15;96848.25;;;8.88;100.00
22580;BME280;11456;47.030;15.396;2024-03-02T05:54:41;96843.13;;;8.68;100.00
22580;BME280;11456;47.030;15.396;2024-03-02T05:57:08;96831.25;;;8.79;100.00
22580;BME280;11456;47.030;15.396;2024-03-02T05:59:56;96836.16;;;9.34;100.00
22580;BME280;11456;47.030;15.396;2024-03-02T06:02:23;96839.16;;;8.80;100.00
22580;BME280;11456;47.030;15.396;2024-03-02T06:04:49;96832.91;;;8.72;100.00
22580;BME280;11456;47.030;15.396;2024-03-02T06:07:16;96844.09;;;8.59;100.00
22580;BME280;11456;47.030;15.396;2024-03-02T06:09:42;96847.88;;;8.49;100.00
22580;BME280;11456;47.030;15.396;2024-03-02T06:12:11;96848.56;;;8.84;100.00
22580;BME280;11456;47.030;15.396;2024-03-02T06:14:37;96848.03;;;8.47;100.00
22580;BME280;11456;47.030;15.396;2024-03-02T06:17:04;96848.78;;;8.57;100.00
22580;BME280;11456;47.030;15.396;2024-03-02T06:19:31;96849.84;;;8.72;100.00
22580;BME280;11456;47.030;15.396;2024-03-02T06:21:58;96865.91;;;8.64;100.00
22580;BME280;11456;47.030;15.396;2024-03-02T06:24:25;96861.47;;;8.47;100.00
22580;BME280;11456;47.030;15.396;2024-03-02T06:26:52;96867.59;;;8.65;100.00
22580;BME280;11456;47.030;15.396;2024-03-02T06:29:19;96872.66;;;8.68;100.00
22580;BME280;11456;47.030;15.396;2024-03-02T06:31:46;96870.63;;;8.62;100.00
22580;BME280;11456;47.030;15.396;2024-03-02T06:34:12;96868.34;;;8.83;100.00
22580;BME280;11456;47.030;15.396;2024-03-02T06:36:39;96874.94;;;8.55;100.00
22580;BME280;11456;47.030;15.396;2024-03-02T06:39:07;96877.13;;;8.60;100.00
22580;BME280;11456;47.030;15.396;2024-03-02T06:41:34;96871.25;;;8.56;100.00
22580;BME280;11456;47.030;15.396;2024-03-02T06:44:01;96876.81;;;8.63;100.00
22580;BME280;11456;47.030;15.396;2024-03-02T06:46:27;96877.34;;;8.66;100.00
22580;BME280;11456;47.030;15.396;2024-03-02T06:48:54;96868.28;;;8.67;100.00
22580;BME280;11456;47.030;15.396;2024-03-02T06:51:21;96866.06;;;8.89;100.00
22580;BME280;11456;47.030;15.396;2024-03-02T06:53:48;96865.75;;;9.00;100.00
22580;BME280;11456;47.030;15.396;2024-03-02T06:56:15;96876.00;;;9.04;100.00
22580;BME280;11456;47.030;15.396;2024-03-02T06:58:41;96867.84;;;9.22;100.00
22580;BME280;11456;47.030;15.396;2024-03-02T07:01:09;96867.19;;;8.86;100.00
22580;BME280;11456;47.030;15.396;2024-03-02T07:03:36;96856.25;;;8.79;100.00
22580;BME280;11456;47.030;15.396;2024-03-02T07:06:04;96858.06;;;9.05;100.00
22580;BME280;11456;47.030;15.396;2024-03-02T07:08:31;96857.44;;;9.19;100.00
22580;BME280;11456;47.030;15.396;2024-03-02T07:10:57;96849.78;;;9.40;100.00
22580;BME280;11456;47.030;15.396;2024-03-02T07:13:24;96839.41;;;9.70;100.00
22580;BME280;11456;47.030;15.396;2024-03-02T07:15:51;96854.56;;;10.27;100.00
22580;BME280;11456;47.030;15.396;2024-03-02T07:18:30;96841.34;;;10.65;100.00
22580;BME280;11456;47.030;15.396;2024-03-02T07:20:57;96842.41;;;10.48;100.00
22580;BME280;11456;47.030;15.396;2024-03-02T07:23:27;96836.16;;;11.02;100.00
22580;BME280;11456;47.030;15.396;2024-03-02T07:25:54;96841.16;;;10.74;100.00
22580;BME280;11456;47.030;15.396;2024-03-02T07:28:26;96838.81;;;10.63;100.00
22580;BME280;11456;47.030;15.396;2024-03-02T07:31:03;96842.31;;;10.80;100.00
22580;BME280;11456;47.030;15.396;2024-03-02T07:33:31;96845.44;;;11.39;100.00
22580;BME280;11456;47.030;15.396;2024-03-02T07:35:59;96848.66;;;10.95;100.00
22580;BME280;11456;47.030;15.396;2024-03-02T07:38:31;96849.41;;;11.51;100.00
22580;BME280;11456;47.030;15.396;2024-03-02T07:40:59;96850.72;;;10.85;100.00
22580;BME280;11456;47.030;15.396;2024-03-02T07:43:26;96848.31;;;10.98;100.00
22580;BME280;11456;47.030;15.396;2024-03-02T07:45:53;96844.66;;;11.53;100.00
22580;BME280;11456;47.030;15.396;2024-03-02T07:48:20;96840.91;;;11.62;100.00
22580;BME280;11456;47.030;15.396;2024-03-02T07:50:47;96852.41;;;12.47;100.00
22580;BME280;11456;47.030;15.396;2024-03-02T07:53:14;96843.38;;;12.69;100.00
22580;BME280;11456;47.030;15.396;2024-03-02T07:55:42;96842.31;;;12.41;100.00
22580;BME280;11456;47.030;15.396;2024-03-02T07:58:08;96839.94;;;12.75;100.00
22580;BME280;11456;47.030;15.396;2024-03-02T08:00:35;96845.34;;;12.23;100.00
22580;BME280;11456;47.030;15.396;2024-03-02T08:03:02;96852.00;;;12.50;100.00
22580;BME280;11456;47.030;15.396;2024-03-02T08:05:29;96847.00;;;12.10;100.00
22580;BME280;11456;47.030;15.396;2024-03-02T08:07:56;96850.31;;;12.49;100.00
22580;BME280;11456;47.030;15.396;2024-03-02T08:10:23;96839.81;;;12.39;100.00
22580;BME280;11456;47.030;15.396;2024-03-02T08:12:50;96845.41;;;11.78;100.00
22580;BME280;11456;47.030;15.396;2024-03-02T08:15:16;96847.06;;;12.01;100.00
22580;BME280;11456;47.030;15.396;2024-03-02T08:17:43;96850.97;;;13.18;100.00
22580;BME280;11456;47.030;15.396;2024-03-02T08:20:16;96840.59;;;12.77;100.00
22580;BME280;11456;47.030;15.396;2024-03-02T08:22:43;96845.78;;;13.08;100.00
22580;BME280;11456;47.030;15.396;2024-03-02T08:25:09;96846.72;;;13.01;100.00
22580;BME280;11456;47.030;15.396;2024-03-02T08:27:36;96834.06;;;13.67;100.00
22580;BME280;11456;47.030;15.396;2024-03-02T08:30:03;96832.28;;;14.37;100.00
22580;BME280;11456;47.030;15.396;2024-03-02T08:32:33;96840.44;;;14.44;100.00
22580;BME280;11456;47.030;15.396;2024-03-02T08:35:00;96839.16;;;13.97;100.00
22580;BME280;11456;47.030;15.396;2024-03-02T08:37:27;96836.31;;;14.48;100.00
22580;BME280;11456;47.030;15.396;2024-03-02T08:39:54;96834.97;;;14.16;100.00
22580;BME280;11456;47.030;15.396;2024-03-02T08:42:22;96834.47;;;14.06;100.00
22580;BME280;11456;47.030;15.396;2024-03-02T08:44:49;96835.41;;;14.69;100.00
22580;BME280;11456;47.030;15.396;2024-03-02T08:47:16;96829.16;;;13.77;100.00
22580;BME280;11456;47.030;15.396;2024-03-02T08:49:43;96832.84;;;13.90;100.00
22580;BME280;11456;47.030;15.396;2024-03-02T08:52:10;96836.41;;;12.60;100.00
22580;BME280;11456;47.030;15.396;2024-03-02T08:54:36;96832.41;;;12.85;100.00
22580;BME280;11456;47.030;15.396;2024-03-02T08:57:05;96830.19;;;13.54;100.00
22580;BME280;11456;47.030;15.396;2024-03-02T08:59:32;96831.63;;;13.36;100.00
22580;BME280;11456;47.030;15.396;2024-03-02T09:01:59;96818.38;;;13.41;100.00
22580;BME280;11456;47.030;15.396;2024-03-02T09:04:26;96830.38;;;13.38;100.00
22580;BME280;11456;47.030;15.396;2024-03-02T09:06:55;96819.50;;;13.68;100.00
22580;BME280;11456;47.030;15.396;2024-03-02T09:09:22;96825.75;;;13.68;100.00
22580;BME280;11456;47.030;15.396;2024-03-02T09:11:49;96823.50;;;14.14;100.00
22580;BME280;11456;47.030;15.396;2024-03-02T09:14:16;96830.31;;;14.10;100.00
22580;BME280;11456;47.030;15.396;2024-03-02T09:16:42;96833.75;;;13.40;100.00
22580;BME280;11456;47.030;15.396;2024-03-02T09:19:09;96834.44;;;13.13;100.00
22580;BME280;11456;47.030;15.396;2024-03-02T09:21:37;96845.56;;;13.18;100.00
22580;BME280;11456;47.030;15.396;2024-03-02T09:24:04;96835.53;;;13.90;100.00
22580;BME280;11456;47.030;15.396;2024-03-02T09:26:31;96839.75;;;13.93;100.00
22580;BME280;11456;47.030;15.396;2024-03-02T09:28:58;96832.41;;;14.08;100.00
22580;BME280;11456;47.030;15.396;2024-03-02T09:31:24;96839.09;;;13.70;100.00
22580;BME280;11456;47.030;15.396;2024-03-02T09:33:51;96837.00;;;14.35;100.00
22580;BME280;11456;47.030;15.396;2024-03-02T09:36:19;96833.09;;;14.94;97.20
22580;BME280;11456;47.030;15.396;2024-03-02T09:38:46;96837.00;;;14.57;98.51
22580;BME280;11456;47.030;15.396;2024-03-02T09:41:14;96842.78;;;15.09;92.17
22580;BME280;11456;47.030;15.396;2024-03-02T09:43:41;96841.81;;;14.89;90.35
22580;BME280;11456;47.030;15.396;2024-03-02T09:46:09;96837.34;;;15.09;94.87
22580;BME280;11456;47.030;15.396;2024-03-02T09:48:37;96831.66;;;14.42;97.42
22580;BME280;11456;47.030;15.396;2024-03-02T09:51:04;96845.34;;;14.13;97.08
22580;BME280;11456;47.030;15.396;2024-03-02T09:53:32;96829.41;;;14.24;99.57
22580;BME280;11456;47.030;15.396;2024-03-02T09:56:00;96842.97;;;14.24;97.51
22580;BME280;11456;47.030;15.396;2024-03-02T09:58:27;96835.75;;;14.53;96.75
22580;BME280;11456;47.030;15.396;2024-03-02T10:00:54;96835.06;;;14.29;94.79
22580;BME280;11456;47.030;15.396;2024-03-02T10:03:22;96829.41;;;13.60;100.00
22580;BME280;11456;47.030;15.396;2024-03-02T10:05:49;96835.47;;;13.84;99.38
22580;BME280;11456;47.030;15.396;2024-03-02T10:08:16;96832.44;;;14.36;96.79
22580;BME280;11456;47.030;15.396;2024-03-02T10:10:43;96837.53;;;14.73;91.36
22580;BME280;11456;47.030;15.396;2024-03-02T10:13:12;96838.66;;;15.61;83.09
22580;BME280;11456;47.030;15.396;2024-03-02T10:15:40;96842.13;;;15.48;84.76
22580;BME280;11456;47.030;15.396;2024-03-02T10:18:11;96834.75;;;15.90;76.94
22580;BME280;11456;47.030;15.396;2024-03-02T10:20:39;96839.19;;;16.04;76.23
22580;BME280;11456;47.030;15.396;2024-03-02T10:23:14;96836.25;;;16.06;76.08
22580;BME280;11456;47.030;15.396;2024-03-02T10:25:41;96839.44;;;16.81;72.88
22580;BME280;11456;47.030;15.396;2024-03-02T10:28:20;96840.06;;;16.31;74.49
22580;BME280;11456;47.030;15.396;2024-03-02T10:30:47;96828.94;;;15.99;78.41
22580;BME280;11456;47.030;15.396;2024-03-02T10:33:17;96828.56;;;16.75;72.72
22580;BME280;11456;47.030;15.396;2024-03-02T10:35:44;96833.53;;;16.98;70.79
22580;BME280;11456;47.030;15.396;2024-03-02T10:38:11;96826.88;;;16.87;67.09
22580;BME280;11456;47.030;15.396;2024-03-02T10:40:38;96835.22;;;16.33;71.19
22580;BME280;11456;47.030;15.396;2024-03-02T10:43:05;96826.91;;;16.67;67.27
22580;BME280;11456;47.030;15.396;2024-03-02T10:45:34;96821.84;;;16.91;67.60
22580;BME280;11456;47.030;15.396;2024-03-02T10:48:02;96819.75;;;16.93;68.13
22580;BME280;11456;47.030;15.396;2024-03-02T10:50:30;96820.44;;;16.62;62.89
22580;BME280;11456;47.030;15.396;2024-03-02T10:52:57;96817.81;;;17.13;65.56
22580;BME280;11456;47.030;15.396;2024-03-02T10:55:23;96810.88;;;17.17;64.88
22580;BME280;11456;47.030;15.396;2024-03-02T10:57:52;96812.53;;;17.31;62.09
22580;BME280;11456;47.030;15.396;2024-03-02T11:00:20;96806.19;;;16.40;70.69
22580;BME280;11456;47.030;15.396;2024-03-02T11:02:58;96800.50;;;17.01;65.34
22580;BME280;11456;47.030;15.396;2024-03-02T11:05:36;96800.72;;;16.53;65.57
22580;BME280;11456;47.030;15.396;2024-03-02T11:08:23;96791.81;;;17.75;58.75
22580;BME280;11456;47.030;15.396;2024-03-02T11:10:58;96798.66;;;16.81;63.17
22580;BME280;11456;47.030;15.396;2024-03-02T11:13:31;96790.94;;;17.81;60.84
22580;BME280;11456;47.030;15.396;2024-03-02T11:16:06;96786.56;;;18.11;59.91
22580;BME280;11456;47.030;15.396;2024-03-02T11:18:37;96784.53;;;17.69;58.08
22580;BME280;11456;47.030;15.396;2024-03-02T11:21:05;96788.06;;;18.32;58.09
22580;BME280;11456;47.030;15.396;2024-03-02T11:23:33;96777.78;;;18.09;59.63
22580;BME280;11456;47.030;15.396;2024-03-02T11:26:22;96779.47;;;18.60;56.15
22580;BME280;11456;47.030;15.396;2024-03-02T11:28:50;96775.72;;;18.79;53.12
22580;BME280;11456;47.030;15.396;2024-03-02T11:31:17;96766.94;;;18.95;54.35
22580;BME280;11456;47.030;15.396;2024-03-02T11:33:44;96756.34;;;16.99;66.40
22580;BME280;11456;47.030;15.396;2024-03-02T11:36:11;96762.50;;;17.32;60.66
22580;BME280;11456;47.030;15.396;2024-03-02T11:38:38;96756.19;;;18.32;55.33
22580;BME280;11456;47.030;15.396;2024-03-02T11:41:08;96757.81;;;18.15;58.12
22580;BME280;11456;47.030;15.396;2024-03-02T11:43:39;96755.81;;;18.29;56.40
22580;BME280;11456;47.030;15.396;2024-03-02T11:46:06;96753.91;;;18.97;53.47
22580;BME280;11456;47.030;15.396;2024-03-02T11:48:38;96755.72;;;19.21;51.93
22580;BME280;11456;47.030;15.396;2024-03-02T11:51:05;96752.50;;;18.70;51.99
22580;BME280;11456;47.030;15.396;2024-03-02T11:53:33;96746.56;;;18.79;51.61
22580;BME280;11456;47.030;15.396;2024-03-02T11:56:02;96747.03;;;18.27;52.92
22580;BME280;11456;47.030;15.396;2024-03-02T11:58:29;96747.22;;;18.25;54.86
22580;BME280;11456;47.030;15.396;2024-03-02T12:00:56;96746.72;;;19.69;49.55
22580;BME280;11456;47.030;15.396;2024-03-02T12:03:25;96741.69;;;19.54;48.62
22580;BME280;11456;47.030;15.396;2024-03-02T12:05:53;96746.00;;;18.71;53.79
22580;BME280;11456;47.030;15.396;2024-03-02T12:08:20;96740.06;;;20.07;48.94
22580;BME280;11456;47.030;15.396;2024-03-02T12:11:01;96740.66;;;19.67;47.93
22580;BME280;11456;47.030;15.396;2024-03-02T12:13:30;96734.13;;;19.68;48.98
22580;BME280;11456;47.030;15.396;2024-03-02T12:15:57;96739.50;;;19.08;48.48
22580;BME280;11456;47.030;15.396;2024-03-02T12:18:24;96728.66;;;19.02;50.73
22580;BME280;11456;47.030;15.396;2024-03-02T12:20:52;96723.06;;;17.86;55.74
22580;BME280;11456;47.030;15.396;2024-03-02T12:23:19;96722.56;;;19.84;48.79
22580;BME280;11456;47.030;15.396;2024-03-02T12:25:46;96722.47;;;19.43;49.39
22580;BME280;11456;47.030;15.396;2024-03-02T12:28:13;96718.81;;;19.67;48.70
22580;BME280;11456;47.030;15.396;2024-03-02T12:30:40;96723.44;;;19.96;48.52
22580;BME280;11456;47.030;15.396;2024-03-02T12:33:07;96719.91;;;19.48;48.70
22580;BME280;11456;47.030;15.396;2024-03-02T12:35:35;96715.41;;;18.87;49.33
22580;BME280;11456;47.030;15.396;2024-03-02T12:38:02;96719.66;;;19.19;50.34
22580;BME280;11456;47.030;15.396;2024-03-02T12:40:30;96711.84;;;18.68;51.75
22580;BME280;11456;47.030;15.396;2024-03-02T12:42:58;96707.81;;;18.03;53.50
22580;BME280;11456;47.030;15.396;2024-03-02T12:45:25;96711.25;;;18.41;51.52
22580;BME280;11456;47.030;15.396;2024-03-02T12:47:52;96710.03;;;16.34;67.11
22580;BME280;11456;47.030;15.396;2024-03-02T12:50:20;96704.25;;;17.02;62.04
22580;BME280;11456;47.030;15.396;2024-03-02T12:52:54;96707.50;;;17.17;62.63
22580;BME280;11456;47.030;15.396;2024-03-02T12:55:22;96709.72;;;16.89;63.60
22580;BME280;11456;47.030;15.396;2024-03-02T12:57:50;96709.44;;;16.26;67.64